sensor_id;sensor_type;location;lat;lon;timestamp;P1;durP1;ratioP1;P2;durP2;ratioP2
6667;SDS011;3370;47.712;9.082;2023-09-30T00:00:58;26.93;;;11.67;;
6667;SDS011;3370;47.712;9.082;2023-09-30T00:03:24;26.33;;;12.67;;
6667;SDS011;3370;47.712;9.082;2023-09-30T00:05:50;31.30;;;12.77;;
6667;SDS011;3370;47.712;9.082;2023-09-30T00:08:16;28.33;;;12.13;;
6667;SDS011;3370;47.712;9.082;2023-09-30T00:10:41;28.77;;;12.20;;
6667;SDS011;3370;47.712;9.082;2023-09-30T00:13:07;28.70;;;12.30;;
6667;SDS011;3370;47.712;9.082;2023-09-30T00:15:33;31.60;;;13.00;;
6667;SDS011;3370;47.712;9.082;2023-09-30T00:17:59;27.30;;;12.10;;
6667;SDS011;3370;47.712;9.082;2023-09-30T00:20:26;30.03;;;12.73;;
6667;SDS011;3370;47.712;9.082;2023-09-30T00:22:53;26.00;;;11.80;;
6667;SDS011;3370;47.712;9.082;2023-09-30T00:25:19;24.77;;;10.73;;
6667;SDS011;3370;47.712;9.082;2023-09-30T00:27:46;26.00;;;11.70;;
6667;SDS011;3370;47.712;9.082;2023-09-30T00:30:14;27.60;;;11.80;;
6667;SDS011;3370;47.712;9.082;2023-09-30T00:32:40;27.43;;;12.30;;
6667;SDS011;3370;47.712;9.082;2023-09-30T00:35:06;30.33;;;12.63;;
6667;SDS011;3370;47.712;9.082;2023-09-30T00:37:38;26.43;;;12.80;;
6667;SDS011;3370;47.712;9.082;2023-09-30T00:40:05;27.90;;;13.03;;
6667;SDS011;3370;47.712;9.082;2023-09-30T00:42:32;25.07;;;11.07;;
6667;SDS011;3370;47.712;9.082;2023-09-30T00:44:58;24.10;;;10.53;;
6667;SDS011;3370;47.712;9.082;2023-09-30T00:47:24;23.80;;;11.43;;
6667;SDS011;3370;47.712;9.082;2023-09-30T00:49:51;27.97;;;12.13;;
6667;SDS011;3370;47.712;9.082;2023-09-30T00:52:18;24.67;;;11.33;;
6667;SDS011;3370;47.712;9.082;2023-09-30T00:54:45;30.47;;;12.80;;
6667;SDS011;3370;47.712;9.082;2023-09-30T00:57:12;30.17;;;13.60;;
6667;SDS011;3370;47.712;9.082;2023-09-30T00:59:39;24.80;;;11.77;;
6667;SDS011;3370;47.712;9.082;2023-09-30T01:02:06;30.70;;;12.67;;
6667;SDS011;3370;47.712;9.082;2023-09-30T01:04:32;26.47;;;12.53;;
6667;SDS011;3370;47.712;9.082;2023-09-30T01:06:58;31.90;;;12.37;;
6667;SDS011;3370;47.712;9.082;2023-09-30T01:09:24;24.00;;;10.30;;
6667;SDS011;3370;47.712;9.082;2023-09-30T01:11:50;26.67;;;11.90;;
6667;SDS011;3370;47.712;9.082;2023-09-30T01:14:25;22.33;;;11.50;;
6667;SDS011;3370;47.712;9.082;2023-09-30T01:16:57;24.27;;;11.17;;
6667;SDS011;3370;47.712;9.082;2023-09-30T01:19:23;27.90;;;11.87;;
6667;SDS011;3370;47.712;9.082;2023-09-30T01:21:59;24.17;;;10.77;;
6667;SDS011;3370;47.712;9.082;2023-09-30T01:24:27;24.13;;;11.00;;
6667;SDS011;3370;47.712;9.082;2023-09-30T01:26:54;22.90;;;10.47;;
6667;SDS011;3370;47.712;9.082;2023-09-30T01:29:21;22.30;;;10.27;;
6667;SDS011;3370;47.712;9.082;2023-09-30T01:31:47;23.20;;;10.40;;
6667;SDS011;3370;47.712;9.082;2023-09-30T01:34:15;27.30;;;10.30;;
6667;SDS011;3370;47.712;9.082;2023-09-30T01:36:41;25.73;;;11.13;;
6667;SDS011;3370;47.712;9.082;2023-09-30T01:39:11;22.53;;;10.07;;
6667;SDS011;3370;47.712;9.082;2023-09-30T01:41:38;25.50;;;11.87;;
6667;SDS011;3370;47.712;9.082;2023-09-30T01:44:05;26.33;;;10.70;;
6667;SDS011;3370;47.712;9.082;2023-09-30T01:46:32;23.50;;;10.00;;
6667;SDS011;3370;47.712;9.082;2023-09-30T01:48:58;23.43;;;10.47;;
6667;SDS011;3370;47.712;9.082;2023-09-30T01:51:24;23.67;;;10.93;;
6667;SDS011;3370;47.712;9.082;2023-09-30T01:53:50;27.60;;;11.17;;
6667;SDS011;3370;47.712;9.082;2023-09-30T01:56:16;23.77;;;10.43;;
6667;SDS011;3370;47.712;9.082;2023-09-30T01:58:41;23.00;;;10.17;;
6667;SDS011;3370;47.712;9.082;2023-09-30T02:01:09;25.67;;;9.93;;
6667;SDS011;3370;47.712;9.082;2023-09-30T02:03:35;28.20;;;9.60;;
6667;SDS011;3370;47.712;9.082;2023-09-30T02:06:01;22.10;;;8.90;;
6667;SDS011;3370;47.712;9.082;2023-09-30T02:08:27;18.47;;;9.03;;
6667;SDS011;3370;47.712;9.082;2023-09-30T02:10:52;20.43;;;9.47;;
6667;SDS011;3370;47.712;9.082;2023-09-30T02:13:18;19.37;;;8.60;;
6667;SDS011;3370;47.712;9.082;2023-09-30T02:15:45;21.37;;;9.70;;
6667;SDS011;3370;47.712;9.082;2023-09-30T02:18:11;25.87;;;9.30;;
6667;SDS011;3370;47.712;9.082;2023-09-30T02:20:37;22.97;;;10.27;;
6667;SDS011;3370;47.712;9.082;2023-09-30T02:23:08;17.33;;;8.60;;
6667;SDS011;3370;47.712;9.082;2023-09-30T02:25:38;23.57;;;9.90;;
6667;SDS011;3370;47.712;9.082;2023-09-30T02:28:05;18.60;;;9.33;;
6667;SDS011;3370;47.712;9.082;2023-09-30T02:30:31;20.40;;;9.70;;
6667;SDS011;3370;47.712;9.082;2023-09-30T02:32:57;20.80;;;8.73;;
6667;SDS011;3370;47.712;9.082;2023-09-30T02:35:23;26.23;;;10.43;;
6667;SDS011;3370;47.712;9.082;2023-09-30T02:37:50;23.57;;;9.43;;
6667;SDS011;3370;47.712;9.082;2023-09-30T02:40:16;21.60;;;9.40;;
6667;SDS011;3370;47.712;9.082;2023-09-30T02:42:43;23.70;;;11.17;;
6667;SDS011;3370;47.712;9.082;2023-09-30T02:45:10;19.87;;;8.30;;
6667;SDS011;3370;47.712;9.082;2023-09-30T02:47:38;22.43;;;8.67;;
6667;SDS011;3370;47.712;9.082;2023-09-30T02:50:04;19.13;;;8.00;;
6667;SDS011;3370;47.712;9.082;2023-09-30T02:52:38;17.20;;;8.10;;
6667;SDS011;3370;47.712;9.082;2023-09-30T02:55:11;17.97;;;8.47;;
6667;SDS011;3370;47.712;9.082;2023-09-30T02:57:37;18.30;;;8.13;;
6667;SDS011;3370;47.712;9.082;2023-09-30T03:00:04;22.90;;;8.07;;
6667;SDS011;3370;47.712;9.082;2023-09-30T03:02:45;16.60;;;6.70;;
6667;SDS011;3370;47.712;9.082;2023-09-30T03:05:11;26.50;;;9.03;;
6667;SDS011;3370;47.712;9.082;2023-09-30T03:07:38;22.27;;;9.37;;
6667;SDS011;3370;47.712;9.082;2023-09-30T03:10:06;19.30;;;8.60;;
6667;SDS011;3370;47.712;9.082;2023-09-30T03:12:34;24.47;;;10.00;;
6667;SDS011;3370;47.712;9.082;2023-09-30T03:15:00;20.50;;;8.17;;
6667;SDS011;3370;47.712;9.082;2023-09-30T03:17:32;18.30;;;8.43;;
6667;SDS011;3370;47.712;9.082;2023-09-30T03:19:58;17.63;;;8.00;;
6667;SDS011;3370;47.712;9.082;2023-09-30T03:22:26;20.07;;;9.10;;
6667;SDS011;3370;47.712;9.082;2023-09-30T03:24:52;21.13;;;9.63;;
6667;SDS011;3370;47.712;9.082;2023-09-30T03:27:22;25.07;;;9.27;;
6667;SDS011;3370;47.712;9.082;2023-09-30T03:29:48;23.13;;;8.73;;
6667;SDS011;3370;47.712;9.082;2023-09-30T03:32:14;19.27;;;7.80;;
6667;SDS011;3370;47.712;9.082;2023-09-30T03:34:40;20.57;;;9.50;;
6667;SDS011;3370;47.712;9.082;2023-09-30T03:37:10;19.47;;;8.33;;
6667;SDS011;3370;47.712;9.082;2023-09-30T03:39:35;23.23;;;8.90;;
6667;SDS011;3370;47.712;9.082;2023-09-30T03:42:01;18.10;;;9.27;;
6667;SDS011;3370;47.712;9.082;2023-09-30T03:44:28;18.23;;;7.60;;
6667;SDS011;3370;47.712;9.082;2023-09-30T03:46:54;18.70;;;8.10;;
6667;SDS011;3370;47.712;9.082;2023-09-30T03:49:20;19.33;;;8.90;;
6667;SDS011;3370;47.712;9.082;2023-09-30T03:51:46;13.97;;;7.80;;
6667;SDS011;3370;47.712;9.082;2023-09-30T03:54:12;24.93;;;8.77;;
6667;SDS011;3370;47.712;9.082;2023-09-30T03:56:37;19.37;;;8.43;;
6667;SDS011;3370;47.712;9.082;2023-09-30T03:59:04;20.60;;;8.87;;
6667;SDS011;3370;47.712;9.082;2023-09-30T04:01:29;21.40;;;8.83;;
6667;SDS011;3370;47.712;9.082;2023-09-30T04:03:56;22.47;;;7.80;;
6667;SDS011;3370;47.712;9.082;2023-09-30T04:06:22;21.40;;;8.80;;
6667;SDS011;3370;47.712;9.082;2023-09-30T04:08:48;19.97;;;8.60;;
6667;SDS011;3370;47.712;9.082;2023-09-30T04:11:15;18.47;;;8.23;;
6667;SDS011;3370;47.712;9.082;2023-09-30T04:13:45;20.00;;;9.07;;
6667;SDS011;3370;47.712;9.082;2023-09-30T04:16:11;20.83;;;8.67;;
6667;SDS011;3370;47.712;9.082;2023-09-30T04:18:37;20.87;;;8.30;;
6667;SDS011;3370;47.712;9.082;2023-09-30T04:21:05;18.80;;;7.87;;
6667;SDS011;3370;47.712;9.082;2023-09-30T04:23:32;19.90;;;8.00;;
6667;SDS011;3370;47.712;9.082;2023-09-30T04:26:01;17.67;;;8.10;;
6667;SDS011;3370;47.712;9.082;2023-09-30T04:28:28;18.67;;;7.70;;
6667;SDS011;3370;47.712;9.082;2023-09-30T04:30:54;17.37;;;7.57;;
6667;SDS011;3370;47.712;9.082;2023-09-30T04:33:19;17.90;;;7.83;;
6667;SDS011;3370;47.712;9.082;2023-09-30T04:35:46;16.30;;;8.47;;
6667;SDS011;3370;47.712;9.082;2023-09-30T04:38:12;16.30;;;8.33;;
6667;SDS011;3370;47.712;9.082;2023-09-30T04:40:38;20.70;;;8.57;;
6667;SDS011;3370;47.712;9.082;2023-09-30T04:43:04;17.77;;;8.37;;
6667;SDS011;3370;47.712;9.082;2023-09-30T04:45:30;19.20;;;7.70;;
6667;SDS011;3370;47.712;9.082;2023-09-30T04:47:56;15.43;;;7.40;;
6667;SDS011;3370;47.712;9.082;2023-09-30T04:50:22;15.77;;;7.30;;
6667;SDS011;3370;47.712;9.082;2023-09-30T04:52:48;13.77;;;7.23;;
6667;SDS011;3370;47.712;9.082;2023-09-30T04:55:16;18.00;;;8.27;;
6667;SDS011;3370;47.712;9.082;2023-09-30T04:57:43;16.87;;;7.73;;
6667;SDS011;3370;47.712;9.082;2023-09-30T05:00:14;15.97;;;8.00;;
6667;SDS011;3370;47.712;9.082;2023-09-30T05:02:43;18.23;;;7.53;;
6667;SDS011;3370;47.712;9.082;2023-09-30T05:05:10;15.93;;;7.40;;
6667;SDS011;3370;47.712;9.082;2023-09-30T05:07:36;14.90;;;7.27;;
6667;SDS011;3370;47.712;9.082;2023-09-30T05:10:05;16.83;;;8.20;;
6667;SDS011;3370;47.712;9.082;2023-09-30T05:12:35;19.30;;;8.17;;
6667;SDS011;3370;47.712;9.082;2023-09-30T05:15:01;15.17;;;7.97;;
6667;SDS011;3370;47.712;9.082;2023-09-30T05:17:28;20.33;;;8.63;;
6667;SDS011;3370;47.712;9.082;2023-09-30T05:19:56;17.90;;;7.77;;
6667;SDS011;3370;47.712;9.082;2023-09-30T05:22:22;18.07;;;7.67;;
6667;SDS011;3370;47.712;9.082;2023-09-30T05:24:52;17.97;;;7.87;;
6667;SDS011;3370;47.712;9.082;2023-09-30T05:27:21;16.37;;;7.63;;
6667;SDS011;3370;47.712;9.082;2023-09-30T05:29:47;16.60;;;7.53;;
6667;SDS011;3370;47.712;9.082;2023-09-30T05:32:13;15.20;;;6.77;;
6667;SDS011;3370;47.712;9.082;2023-09-30T05:34:39;17.07;;;7.47;;
6667;SDS011;3370;47.712;9.082;2023-09-30T05:37:05;15.97;;;7.13;;
6667;SDS011;3370;47.712;9.082;2023-09-30T05:39:31;21.83;;;7.83;;
6667;SDS011;3370;47.712;9.082;2023-09-30T05:41:57;14.17;;;6.93;;
6667;SDS011;3370;47.712;9.082;2023-09-30T05:44:23;14.90;;;6.77;;
6667;SDS011;3370;47.712;9.082;2023-09-30T05:46:52;17.87;;;7.73;;
6667;SDS011;3370;47.712;9.082;2023-09-30T05:49:19;14.70;;;7.57;;
6667;SDS011;3370;47.712;9.082;2023-09-30T05:51:45;15.83;;;7.43;;
6667;SDS011;3370;47.712;9.082;2023-09-30T05:54:11;19.13;;;7.17;;
6667;SDS011;3370;47.712;9.082;2023-09-30T05:56:38;17.83;;;6.80;;
6667;SDS011;3370;47.712;9.082;2023-09-30T05:59:05;16.73;;;7.13;;
6667;SDS011;3370;47.712;9.082;2023-09-30T06:01:31;18.07;;;7.90;;
6667;SDS011;3370;47.712;9.082;2023-09-30T06:03:58;15.77;;;6.93;;
6667;SDS011;3370;47.712;9.082;2023-09-30T06:06:25;23.33;;;7.10;;
6667;SDS011;3370;47.712;9.082;2023-09-30T06:08:54;14.30;;;7.33;;
6667;SDS011;3370;47.712;9.082;2023-09-30T06:11:23;14.77;;;7.20;;
6667;SDS011;3370;47.712;9.082;2023-09-30T06:13:52;16.70;;;7.30;;
6667;SDS011;3370;47.712;9.082;2023-09-30T06:16:26;16.40;;;6.60;;
6667;SDS011;3370;47.712;9.082;2023-09-30T06:18:53;16.60;;;7.70;;
6667;SDS011;3370;47.712;9.082;2023-09-30T06:21:19;19.20;;;7.03;;
6667;SDS011;3370;47.712;9.082;2023-09-30T06:23:49;13.90;;;6.50;;
6667;SDS011;3370;47.712;9.082;2023-09-30T06:26:19;20.23;;;7.50;;
6667;SDS011;3370;47.712;9.082;2023-09-30T06:28:46;16.30;;;8.50;;
6667;SDS011;3370;47.712;9.082;2023-09-30T06:31:12;16.53;;;7.00;;
6667;SDS011;3370;47.712;9.082;2023-09-30T06:33:38;18.60;;;7.93;;
6667;SDS011;3370;47.712;9.082;2023-09-30T06:36:08;19.47;;;9.00;;
6667;SDS011;3370;47.712;9.082;2023-09-30T06:38:35;15.37;;;7.77;;
6667;SDS011;3370;47.712;9.082;2023-09-30T06:41:02;16.07;;;6.83;;
6667;SDS011;3370;47.712;9.082;2023-09-30T06:43:29;15.70;;;6.73;;
6667;SDS011;3370;47.712;9.082;2023-09-30T06:45:54;13.17;;;6.90;;
6667;SDS011;3370;47.712;9.082;2023-09-30T06:48:20;18.07;;;7.33;;
6667;SDS011;3370;47.712;9.082;2023-09-30T06:50:50;17.63;;;7.50;;
6667;SDS011;3370;47.712;9.082;2023-09-30T06:53:18;14.97;;;7.23;;
6667;SDS011;3370;47.712;9.082;2023-09-30T06:55:44;19.30;;;7.47;;
6667;SDS011;3370;47.712;9.082;2023-09-30T06:58:11;20.17;;;7.40;;
6667;SDS011;3370;47.712;9.082;2023-09-30T07:00:43;14.43;;;6.73;;
6667;SDS011;3370;47.712;9.082;2023-09-30T07:03:08;17.83;;;7.63;;
6667;SDS011;3370;47.712;9.082;2023-09-30T07:05:37;14.67;;;6.60;;
6667;SDS011;3370;47.712;9.082;2023-09-30T07:08:05;13.40;;;7.10;;
6667;SDS011;3370;47.712;9.082;2023-09-30T07:10:31;15.17;;;6.80;;
6667;SDS011;3370;47.712;9.082;2023-09-30T07:12:56;16.60;;;6.70;;
6667;SDS011;3370;47.712;9.082;2023-09-30T07:15:22;19.23;;;7.03;;
6667;SDS011;3370;47.712;9.082;2023-09-30T07:17:48;14.67;;;6.40;;
6667;SDS011;3370;47.712;9.082;2023-09-30T07:20:14;14.77;;;6.97;;
6667;SDS011;3370;47.712;9.082;2023-09-30T07:22:40;20.50;;;8.30;;
6667;SDS011;3370;47.712;9.082;2023-09-30T07:25:07;16.13;;;7.40;;
6667;SDS011;3370;47.712;9.082;2023-09-30T07:27:33;12.10;;;6.30;;
6667;SDS011;3370;47.712;9.082;2023-09-30T07:30:00;14.80;;;6.70;;
6667;SDS011;3370;47.712;9.082;2023-09-30T07:32:26;18.80;;;7.57;;
6667;SDS011;3370;47.712;9.082;2023-09-30T07:34:51;18.27;;;7.57;;
6667;SDS011;3370;47.712;9.082;2023-09-30T07:37:17;15.00;;;6.87;;
6667;SDS011;3370;47.712;9.082;2023-09-30T07:39:45;22.80;;;7.03;;
6667;SDS011;3370;47.712;9.082;2023-09-30T07:42:11;12.50;;;6.30;;
6667;SDS011;3370;47.712;9.082;2023-09-30T07:44:37;19.47;;;6.93;;
6667;SDS011;3370;47.712;9.082;2023-09-30T07:47:04;12.00;;;6.50;;
6667;SDS011;3370;47.712;9.082;2023-09-30T07:49:33;14.50;;;6.30;;
6667;SDS011;3370;47.712;9.082;2023-09-30T07:51:59;16.90;;;6.37;;
6667;SDS011;3370;47.712;9.082;2023-09-30T07:54:25;14.97;;;6.40;;
6667;SDS011;3370;47.712;9.082;2023-09-30T07:56:52;18.00;;;6.60;;
6667;SDS011;3370;47.712;9.082;2023-09-30T07:59:17;14.90;;;5.70;;
6667;SDS011;3370;47.712;9.082;2023-09-30T08:01:43;19.40;;;6.37;;
6667;SDS011;3370;47.712;9.082;2023-09-30T08:04:10;11.60;;;5.90;;
6667;SDS011;3370;47.712;9.082;2023-09-30T08:06:35;15.70;;;6.97;;
6667;SDS011;3370;47.712;9.082;2023-09-30T08:09:01;12.70;;;6.97;;
6667;SDS011;3370;47.712;9.082;2023-09-30T08:11:28;16.33;;;6.93;;
6667;SDS011;3370;47.712;9.082;2023-09-30T08:13:56;16.07;;;7.07;;
6667;SDS011;3370;47.712;9.082;2023-09-30T08:16:23;14.17;;;7.20;;
6667;SDS011;3370;47.712;9.082;2023-09-30T08:18:49;17.53;;;7.17;;
6667;SDS011;3370;47.712;9.082;2023-09-30T08:21:16;15.90;;;6.90;;
6667;SDS011;3370;47.712;9.082;2023-09-30T08:23:42;12.97;;;6.60;;
6667;SDS011;3370;47.712;9.082;2023-09-30T08:26:09;15.93;;;6.57;;
6667;SDS011;3370;47.712;9.082;2023-09-30T08:28:35;14.03;;;6.73;;
6667;SDS011;3370;47.712;9.082;2023-09-30T08:31:01;13.00;;;5.97;;
6667;SDS011;3370;47.712;9.082;2023-09-30T08:33:28;15.33;;;6.63;;
6667;SDS011;3370;47.712;9.082;2023-09-30T08:35:56;16.37;;;7.57;;
6667;SDS011;3370;47.712;9.082;2023-09-30T08:38:26;18.80;;;7.40;;
6667;SDS011;3370;47.712;9.082;2023-09-30T08:40:52;15.03;;;6.50;;
6667;SDS011;3370;47.712;9.082;2023-09-30T08:43:20;15.07;;;6.97;;
6667;SDS011;3370;47.712;9.082;2023-09-30T08:45:51;16.73;;;8.03;;
6667;SDS011;3370;47.712;9.082;2023-09-30T08:48:19;22.10;;;6.20;;
6667;SDS011;3370;47.712;9.082;2023-09-30T08:50:46;11.80;;;6.20;;
6667;SDS011;3370;47.712;9.082;2023-09-30T08:53:16;18.07;;;7.13;;
6667;SDS011;3370;47.712;9.082;2023-09-30T08:55:43;17.00;;;7.23;;
6667;SDS011;3370;47.712;9.082;2023-09-30T08:58:11;18.07;;;7.80;;
6667;SDS011;3370;47.712;9.082;2023-09-30T09:00:38;14.60;;;7.60;;
6667;SDS011;3370;47.712;9.082;2023-09-30T09:03:08;16.97;;;7.53;;
6667;SDS011;3370;47.712;9.082;2023-09-30T09:05:33;18.47;;;7.10;;
6667;SDS011;3370;47.712;9.082;2023-09-30T09:07:59;19.27;;;7.47;;
6667;SDS011;3370;47.712;9.082;2023-09-30T09:10:25;15.03;;;6.33;;
6667;SDS011;3370;47.712;9.082;2023-09-30T09:12:58;16.30;;;7.30;;
6667;SDS011;3370;47.712;9.082;2023-09-30T09:15:27;17.37;;;8.17;;
6667;SDS011;3370;47.712;9.082;2023-09-30T09:17:53;18.53;;;7.80;;
6667;SDS011;3370;47.712;9.082;2023-09-30T09:20:20;16.10;;;6.83;;
6667;SDS011;3370;47.712;9.082;2023-09-30T09:22:50;19.57;;;8.83;;
6667;SDS011;3370;47.712;9.082;2023-09-30T09:25:21;14.30;;;7.17;;
6667;SDS011;3370;47.712;9.082;2023-09-30T09:27:48;17.60;;;8.10;;
6667;SDS011;3370;47.712;9.082;2023-09-30T09:30:20;22.80;;;8.27;;
6667;SDS011;3370;47.712;9.082;2023-09-30T09:35:29;18.57;;;7.80;;
6667;SDS011;3370;47.712;9.082;2023-09-30T09:38:04;25.13;;;7.97;;
6667;SDS011;3370;47.712;9.082;2023-09-30T09:40:32;25.23;;;9.30;;
6667;SDS011;3370;47.712;9.082;2023-09-30T09:43:06;19.90;;;8.20;;
6667;SDS011;3370;47.712;9.082;2023-09-30T09:45:36;16.57;;;8.30;;
6667;SDS011;3370;47.712;9.082;2023-09-30T09:48:06;16.53;;;7.27;;
6667;SDS011;3370;47.712;9.082;2023-09-30T09:50:32;17.50;;;7.33;;
6667;SDS011;3370;47.712;9.082;2023-09-30T09:53:01;20.87;;;8.87;;
6667;SDS011;3370;47.712;9.082;2023-09-30T09:55:29;14.80;;;7.07;;
6667;SDS011;3370;47.712;9.082;2023-09-30T09:57:55;19.20;;;8.80;;
6667;SDS011;3370;47.712;9.082;2023-09-30T10:00:23;18.23;;;7.73;;
6667;SDS011;3370;47.712;9.082;2023-09-30T10:02:51;19.13;;;8.67;;
6667;SDS011;3370;47.712;9.082;2023-09-30T10:05:18;17.33;;;8.20;;
6667;SDS011;3370;47.712;9.082;2023-09-30T10:10:28;21.03;;;9.00;;
6667;SDS011;3370;47.712;9.082;2023-09-30T10:12:55;21.30;;;9.30;;
6667;SDS011;3370;47.712;9.082;2023-09-30T10:18:05;14.67;;;7.30;;
6667;SDS011;3370;47.712;9.082;2023-09-30T10:20:37;20.57;;;8.80;;
6667;SDS011;3370;47.712;9.082;2023-09-30T10:23:25;19.33;;;9.13;;
6667;SDS011;3370;47.712;9.082;2023-09-30T10:28:39;19.87;;;9.07;;
6667;SDS011;3370;47.712;9.082;2023-09-30T10:36:31;18.97;;;7.90;;
6667;SDS011;3370;47.712;9.082;2023-09-30T10:38:59;15.73;;;8.23;;
6667;SDS011;3370;47.712;9.082;2023-09-30T10:46:51;18.73;;;8.20;;
6667;SDS011;3370;47.712;9.082;2023-09-30T10:51:52;17.43;;;8.53;;
6667;SDS011;3370;47.712;9.082;2023-09-30T10:54:23;17.70;;;8.40;;
6667;SDS011;3370;47.712;9.082;2023-09-30T10:56:50;20.53;;;8.00;;
6667;SDS011;3370;47.712;9.082;2023-09-30T10:59:23;18.33;;;8.00;;
6667;SDS011;3370;47.712;9.082;2023-09-30T11:01:53;19.83;;;7.90;;
6667;SDS011;3370;47.712;9.082;2023-09-30T11:04:19;15.43;;;7.50;;
6667;SDS011;3370;47.712;9.082;2023-09-30T11:06:45;20.63;;;8.93;;
6667;SDS011;3370;47.712;9.082;2023-09-30T11:09:15;18.13;;;9.30;;
6667;SDS011;3370;47.712;9.082;2023-09-30T11:11:47;16.57;;;7.30;;
6667;SDS011;3370;47.712;9.082;2023-09-30T11:16:54;18.77;;;8.00;;
6667;SDS011;3370;47.712;9.082;2023-09-30T11:19:21;20.00;;;7.83;;
6667;SDS011;3370;47.712;9.082;2023-09-30T11:21:51;15.87;;;7.80;;
6667;SDS011;3370;47.712;9.082;2023-09-30T11:24:18;14.20;;;7.70;;
6667;SDS011;3370;47.712;9.082;2023-09-30T11:26:44;20.40;;;8.30;;
6667;SDS011;3370;47.712;9.082;2023-09-30T11:29:15;21.53;;;7.47;;
6667;SDS011;3370;47.712;9.082;2023-09-30T11:31:42;14.60;;;7.60;;
6667;SDS011;3370;47.712;9.082;2023-09-30T11:34:13;22.20;;;8.30;;
6667;SDS011;3370;47.712;9.082;2023-09-30T11:36:47;20.73;;;7.87;;
6667;SDS011;3370;47.712;9.082;2023-09-30T11:39:25;18.77;;;8.43;;
6667;SDS011;3370;47.712;9.082;2023-09-30T11:41:56;17.30;;;7.50;;
6667;SDS011;3370;47.712;9.082;2023-09-30T11:44:23;17.00;;;8.00;;
6667;SDS011;3370;47.712;9.082;2023-09-30T11:46:55;17.60;;;8.67;;
6667;SDS011;3370;47.712;9.082;2023-09-30T11:49:34;14.37;;;7.33;;
6667;SDS011;3370;47.712;9.082;2023-09-30T11:52:06;15.67;;;7.70;;
6667;SDS011;3370;47.712;9.082;2023-09-30T11:54:38;16.93;;;8.00;;
6667;SDS011;3370;47.712;9.082;2023-09-30T11:57:10;17.57;;;8.60;;
6667;SDS011;3370;47.712;9.082;2023-09-30T11:59:40;15.50;;;7.00;;
6667;SDS011;3370;47.712;9.082;2023-09-30T12:02:07;18.97;;;8.93;;
6667;SDS011;3370;47.712;9.082;2023-09-30T12:04:40;17.17;;;8.93;;
6667;SDS011;3370;47.712;9.082;2023-09-30T12:07:08;15.40;;;7.37;;
6667;SDS011;3370;47.712;9.082;2023-09-30T12:09:34;17.47;;;8.20;;
6667;SDS011;3370;47.712;9.082;2023-09-30T12:12:02;15.87;;;7.87;;
6667;SDS011;3370;47.712;9.082;2023-09-30T12:14:29;19.73;;;8.90;;
6667;SDS011;3370;47.712;9.082;2023-09-30T12:16:59;19.53;;;8.63;;
6667;SDS011;3370;47.712;9.082;2023-09-30T12:19:25;17.57;;;8.37;;
6667;SDS011;3370;47.712;9.082;2023-09-30T12:21:51;22.90;;;8.40;;
6667;SDS011;3370;47.712;9.082;2023-09-30T12:24:18;18.07;;;8.30;;
6667;SDS011;3370;47.712;9.082;2023-09-30T12:26:49;17.30;;;8.30;;
6667;SDS011;3370;47.712;9.082;2023-09-30T12:29:20;18.00;;;8.70;;
6667;SDS011;3370;47.712;9.082;2023-09-30T12:31:48;18.33;;;8.77;;
6667;SDS011;3370;47.712;9.082;2023-09-30T12:34:17;15.73;;;8.30;;
6667;SDS011;3370;47.712;9.082;2023-09-30T12:36:42;14.90;;;7.93;;
6667;SDS011;3370;47.712;9.082;2023-09-30T12:39:09;13.43;;;6.83;;
6667;SDS011;3370;47.712;9.082;2023-09-30T12:41:39;17.87;;;8.30;;
6667;SDS011;3370;47.712;9.082;2023-09-30T12:44:09;19.77;;;8.50;;
6667;SDS011;3370;47.712;9.082;2023-09-30T12:46:35;19.97;;;8.23;;
6667;SDS011;3370;47.712;9.082;2023-09-30T12:49:04;14.30;;;7.50;;
6667;SDS011;3370;47.712;9.082;2023-09-30T12:51:34;16.17;;;7.47;;
6667;SDS011;3370;47.712;9.082;2023-09-30T12:54:01;15.60;;;7.27;;
6667;SDS011;3370;47.712;9.082;2023-09-30T12:56:27;12.63;;;6.63;;
6667;SDS011;3370;47.712;9.082;2023-09-30T12:58:57;16.10;;;7.80;;
6667;SDS011;3370;47.712;9.082;2023-09-30T13:01:24;16.37;;;8.20;;
6667;SDS011;3370;47.712;9.082;2023-09-30T13:03:50;19.10;;;8.50;;
6667;SDS011;3370;47.712;9.082;2023-09-30T13:06:17;14.93;;;8.30;;
6667;SDS011;3370;47.712;9.082;2023-09-30T13:08:44;14.00;;;7.30;;
6667;SDS011;3370;47.712;9.082;2023-09-30T13:11:10;19.43;;;9.77;;
6667;SDS011;3370;47.712;9.082;2023-09-30T13:13:36;17.27;;;8.10;;
6667;SDS011;3370;47.712;9.082;2023-09-30T13:16:03;18.40;;;8.87;;
6667;SDS011;3370;47.712;9.082;2023-09-30T13:18:33;14.23;;;7.43;;
6667;SDS011;3370;47.712;9.082;2023-09-30T13:20:59;18.63;;;8.27;;
6667;SDS011;3370;47.712;9.082;2023-09-30T13:23:25;17.10;;;8.27;;
6667;SDS011;3370;47.712;9.082;2023-09-30T13:25:52;14.90;;;7.87;;
6667;SDS011;3370;47.712;9.082;2023-09-30T13:28:18;19.67;;;8.70;;
6667;SDS011;3370;47.712;9.082;2023-09-30T13:30:44;17.83;;;7.53;;
6667;SDS011;3370;47.712;9.082;2023-09-30T13:33:10;15.80;;;8.37;;
6667;SDS011;3370;47.712;9.082;2023-09-30T13:35:37;17.20;;;7.90;;
6667;SDS011;3370;47.712;9.082;2023-09-30T13:38:03;15.27;;;7.70;;
6667;SDS011;3370;47.712;9.082;2023-09-30T13:40:29;16.40;;;8.10;;
6667;SDS011;3370;47.712;9.082;2023-09-30T13:42:55;17.90;;;7.60;;
6667;SDS011;3370;47.712;9.082;2023-09-30T13:45:22;13.83;;;7.37;;
6667;SDS011;3370;47.712;9.082;2023-09-30T13:47:48;15.37;;;7.23;;
6667;SDS011;3370;47.712;9.082;2023-09-30T13:50:14;16.93;;;7.83;;
6667;SDS011;3370;47.712;9.082;2023-09-30T13:52:41;15.33;;;7.43;;
6667;SDS011;3370;47.712;9.082;2023-09-30T13:55:06;15.73;;;8.20;;
6667;SDS011;3370;47.712;9.082;2023-09-30T13:57:33;16.70;;;8.17;;
6667;SDS011;3370;47.712;9.082;2023-09-30T14:00:00;21.57;;;8.43;;
6667;SDS011;3370;47.712;9.082;2023-09-30T14:02:28;17.10;;;8.83;;
6667;SDS011;3370;47.712;9.082;2023-09-30T14:04:54;16.33;;;7.40;;
6667;SDS011;3370;47.712;9.082;2023-09-30T14:07:20;20.90;;;8.73;;
6667;SDS011;3370;47.712;9.082;2023-09-30T14:09:46;15.80;;;7.80;;
6667;SDS011;3370;47.712;9.082;2023-09-30T14:12:12;15.00;;;7.70;;
6667;SDS011;3370;47.712;9.082;2023-09-30T14:14:38;18.90;;;8.90;;
6667;SDS011;3370;47.712;9.082;2023-09-30T14:17:04;14.93;;;7.57;;
6667;SDS011;3370;47.712;9.082;2023-09-30T14:19:34;15.83;;;8.50;;
6667;SDS011;3370;47.712;9.082;2023-09-30T14:22:02;16.83;;;8.63;;
6667;SDS011;3370;47.712;9.082;2023-09-30T14:24:30;17.90;;;8.10;;
6667;SDS011;3370;47.712;9.082;2023-09-30T14:26:58;14.90;;;8.40;;
6667;SDS011;3370;47.712;9.082;2023-09-30T14:29:24;17.23;;;8.17;;
6667;SDS011;3370;47.712;9.082;2023-09-30T14:31:50;21.37;;;9.20;;
6667;SDS011;3370;47.712;9.082;2023-09-30T14:34:16;18.13;;;9.27;;
6667;SDS011;3370;47.712;9.082;2023-09-30T14:36:43;17.53;;;7.90;;
6667;SDS011;3370;47.712;9.082;2023-09-30T14:39:09;15.73;;;8.30;;
6667;SDS011;3370;47.712;9.082;2023-09-30T14:41:35;16.20;;;8.93;;
6667;SDS011;3370;47.712;9.082;2023-09-30T14:44:01;17.23;;;7.87;;
6667;SDS011;3370;47.712;9.082;2023-09-30T14:46:32;13.40;;;7.10;;
6667;SDS011;3370;47.712;9.082;2023-09-30T14:49:02;16.63;;;7.80;;
6667;SDS011;3370;47.712;9.082;2023-09-30T14:51:28;14.30;;;8.00;;
6667;SDS011;3370;47.712;9.082;2023-09-30T14:53:54;18.30;;;8.87;;
6667;SDS011;3370;47.712;9.082;2023-09-30T14:56:20;16.50;;;8.40;;
6667;SDS011;3370;47.712;9.082;2023-09-30T14:58:46;16.87;;;8.40;;
6667;SDS011;3370;47.712;9.082;2023-09-30T15:01:12;16.33;;;7.37;;
6667;SDS011;3370;47.712;9.082;2023-09-30T15:03:38;17.93;;;7.87;;
6667;SDS011;3370;47.712;9.082;2023-09-30T15:06:05;15.67;;;7.90;;
6667;SDS011;3370;47.712;9.082;2023-09-30T15:08:31;21.13;;;8.97;;
6667;SDS011;3370;47.712;9.082;2023-09-30T15:11:01;20.37;;;9.20;;
6667;SDS011;3370;47.712;9.082;2023-09-30T15:13:27;20.33;;;9.87;;
6667;SDS011;3370;47.712;9.082;2023-09-30T15:15:54;15.57;;;8.10;;
6667;SDS011;3370;47.712;9.082;2023-09-30T15:18:20;19.53;;;8.87;;
6667;SDS011;3370;47.712;9.082;2023-09-30T15:20:46;18.17;;;9.17;;
6667;SDS011;3370;47.712;9.082;2023-09-30T15:23:15;18.47;;;9.27;;
6667;SDS011;3370;47.712;9.082;2023-09-30T15:25:41;19.63;;;8.80;;
6667;SDS011;3370;47.712;9.082;2023-09-30T15:28:14;16.13;;;8.40;;